Time;durP1;ratioP1;P1;durP2;ratioP2;P2;SDS_P1;SDS_P2;PMS_P1;PMS_P2;Temp;Humidity;BMP_temperature;BMP_pressure;BME280_temperature;BME280_humidity;BME280_pressure;Samples;Min_cycle;Max_cycle;Signal;HPM_P1;HPM_P2
2022/04/21 00:01:36;;;;;;;7.75;5.40;;;;;;;9.25;65.52;67801.44;5059122;28;20055;-77
2022/04/21 00:04:02;;;;;;;8.02;5.18;;;;;;;9.19;65.80;67797.84;5055008;28;20396;-78
2022/04/21 00:06:28;;;;;;;6.60;4.57;;;;;;;9.15;66.03;67795.97;5054771;28;20151;-78
2022/04/21 00:08:53;;;;;;;8.63;5.03;;;;;;;9.12;66.27;67795.22;5060321;28;20036;-77
2022/04/21 00:11:18;;;;;;;8.18;5.30;;;;;;;9.11;65.36;67791.44;5055513;28;20044;-78
2022/04/21 00:13:44;;;;;;;7.30;4.55;;;;;;;9.09;65.69;67786.53;5056511;28;20067;-78
2022/04/21 00:16:10;;;;;;;10.18;4.90;;;;;;;9.03;65.54;67779.72;5057196;28;20051;-78
2022/04/21 00:18:35;;;;;;;8.55;5.10;;;;;;;8.99;66.47;67775.75;5056987;28;20399;-78
2022/04/21 00:21:01;;;;;;;8.80;5.22;;;;;;;8.92;67.07;67769.91;5056213;28;20040;-77
2022/04/21 00:23:27;;;;;;;6.60;5.03;;;;;;;8.86;67.03;67763.09;5059470;28;20041;-78
2022/04/21 00:26:03;;;;;;;8.52;4.43;;;;;;;8.83;66.89;67754.94;5053297;28;20048;-77
2022/04/21 00:28:29;;;;;;;8.10;4.72;;;;;;;8.81;66.90;67755.91;5054972;28;20075;-77
2022/04/21 00:30:55;;;;;;;9.35;4.38;;;;;;;8.80;66.79;67754.78;5059134;28;20454;-78
2022/04/21 00:33:20;;;;;;;7.20;4.95;;;;;;;8.79;66.95;67751.00;5056191;28;21274;-78
2022/04/21 00:35:46;;;;;;;8.88;4.60;;;;;;;8.79;67.50;67756.31;5055626;28;20047;-77
2022/04/21 00:38:12;;;;;;;8.52;4.82;;;;;;;8.81;67.33;67753.25;5054036;28;20037;-77
2022/04/21 00:40:37;;;;;;;7.10;4.55;;;;;;;8.81;66.63;67755.34;5053595;28;20036;-78
2022/04/21 00:43:03;;;;;;;7.25;4.72;;;;;;;8.80;67.14;67756.88;5055387;28;20078;-78
2022/04/21 00:45:29;;;;;;;8.57;5.22;;;;;;;8.75;67.47;67749.13;5054110;28;20052;-78
2022/04/21 00:47:56;;;;;;;8.45;4.97;;;;;;;8.73;67.17;67752.16;5057085;28;20139;-77
2022/04/21 00:50:27;;;;;;;8.95;5.47;;;;;;;8.73;67.69;67743.63;5051703;28;20418;-77
2022/04/21 00:52:54;;;;;;;7.32;4.88;;;;;;;8.74;67.47;67747.97;5055831;28;20044;-77
2022/04/21 00:55:20;;;;;;;8.02;5.03;;;;;;;8.72;68.01;67745.72;5056006;28;20495;-77
2022/04/21 00:57:47;;;;;;;6.75;4.78;;;;;;;8.72;67.82;67751.03;5057283;28;20098;-78
2022/04/21 01:00:13;;;;;;;9.20;5.38;;;;;;;8.66;67.99;67741.59;5053073;28;20044;-78
2022/04/21 01:02:46;;;;;;;7.32;4.63;;;;;;;8.63;68.18;67737.59;5055946;28;20037;-77
2022/04/21 01:05:12;;;;;;;9.25;5.10;;;;;;;8.61;68.38;67732.69;5054965;28;20045;-77
2022/04/21 01:07:38;;;;;;;9.23;5.10;;;;;;;8.57;68.66;67731.38;5055503;28;20040;-77
2022/04/21 01:10:03;;;;;;;9.00;5.18;;;;;;;8.54;68.92;67725.31;5051323;28;20033;-77
2022/04/21 01:12:30;;;;;;;8.10;5.07;;;;;;;8.52;69.04;67720.41;5049298;28;20041;-77
2022/04/21 01:14:56;;;;;;;8.75;4.95;;;;;;;8.49;69.09;67722.31;5053135;28;20051;-78
2022/04/21 01:17:39;;;;;;;8.02;5.40;;;;;;;8.46;69.53;67718.91;5056134;28;20115;-77
2022/04/21 01:20:06;;;;;;;8.10;5.10;;;;;;;8.45;69.83;67717.78;5042144;28;20065;-77
2022/04/21 01:22:31;;;;;;;9.63;4.80;;;;;;;8.44;69.83;67711.34;5046824;28;20041;-78
2022/04/21 01:24:57;;;;;;;6.70;4.80;;;;;;;;;;5047567;28;20044;-77
2022/04/21 01:27:27;;;;;;;9.23;5.57;;;;;;;8.39;70.28;67706.25;5047621;28;20500;-78
2022/04/21 01:29:53;;;;;;;7.47;5.38;;;;;;;8.36;70.45;67706.03;5047846;28;20041;-78
2022/04/21 01:32:18;;;;;;;9.55;5.20;;;;;;;8.33;71.00;67702.63;5047434;28;20067;-78
2022/04/21 01:34:44;;;;;;;9.93;5.88;;;;;;;8.33;70.76;67705.28;5048216;28;20088;-78
2022/04/21 01:42:37;;;;;;;9.93;5.07;;;;;;;8.28;71.10;67696.41;5065527;28;20064;-78
2022/04/21 01:45:02;;;;;;;9.07;5.30;;;;;;;8.26;71.23;67697.38;5062627;28;20058;-78
2022/04/21 01:47:28;;;;;;;7.65;5.57;;;;;;;8.19;72.29;67688.88;5066559;28;20122;-78
2022/04/21 01:49:53;;;;;;;7.78;5.03;;;;;;;8.11;72.44;67683.03;5060336;28;20037;-79
2022/04/21 01:52:18;;;;;;;7.97;5.93;;;;;;;8.10;73.02;67679.25;5048510;28;20519;-78
2022/04/21 01:54:44;;;;;;;7.53;5.00;;;;;;;8.10;72.60;67677.16;5047659;28;20037;-78
2022/04/21 01:57:09;;;;;;;10.32;5.53;;;;;;;8.12;72.58;67682.06;5048231;28;20041;-78
2022/04/21 01:59:35;;;;;;;7.95;5.90;;;;;;;8.13;72.74;67683.19;5048904;28;20558;-78
2022/04/21 02:02:00;;;;;;;9.85;5.57;;;;;;;8.12;73.04;67676.22;5052596;28;20037;-78
2022/04/21 02:04:26;;;;;;;8.80;5.40;;;;;;;8.10;73.08;67677.16;5032607;28;20053;-78
2022/04/21 02:06:51;;;;;;;8.93;5.78;;;;;;;8.13;73.22;67682.63;5050555;28;20070;-78
2022/04/21 02:09:17;;;;;;;8.77;5.50;;;;;;;8.09;73.22;67678.13;5049815;28;20526;-78
2022/04/21 02:11:42;;;;;;;8.27;5.43;;;;;;;8.07;73.62;67676.41;5050527;28;20040;-77
2022/04/21 02:14:07;;;;;;;8.00;5.30;;;;;;;8.08;73.79;67674.88;5048943;28;20082;-78
2022/04/21 02:16:33;;;;;;;10.00;5.05;;;;;;;8.06;73.74;67677.38;5048111;28;20163;-78
2022/04/21 02:18:58;;;;;;;10.05;5.30;;;;;;;8.06;73.98;67674.72;5048779;28;20052;-78
2022/04/21 02:21:23;;;;;;;7.57;5.40;;;;;;;8.02;74.24;67664.88;5048338;28;20037;-78
2022/04/21 02:23:48;;;;;;;7.82;5.20;;;;;;;8.01;74.56;67671.72;5049485;28;20040;-78
2022/04/21 02:26:14;;;;;;;8.43;6.10;;;;;;;7.97;74.49;67664.50;5050812;28;20045;-78
2022/04/21 02:28:39;;;;;;;8.45;5.07;;;;;;;7.93;74.65;67660.00;5052044;28;20083;-78
2022/04/21 02:31:04;;;;;;;8.45;5.20;;;;;;;7.90;74.94;67652.41;5052745;28;20598;-78
2022/04/21 02:33:31;;;;;;;9.43;5.68;;;;;;;7.88;75.22;67658.13;5051175;28;20037;-78
2022/04/21 02:35:56;;;;;;;8.02;5.57;;;;;;;7.88;75.57;67654.88;5051909;28;20504;-78
2022/04/21 02:38:21;;;;;;;9.35;5.68;;;;;;;7.81;75.87;67646.97;5052510;28;20052;-78
2022/04/21 02:40:47;;;;;;;10.23;6.15;;;;;;;7.78;76.44;67644.13;5051582;28;20033;-78
2022/04/21 02:43:12;;;;;;;7.85;5.22;;;;;;;7.75;76.77;67638.09;5052108;28;20040;-78
2022/04/21 02:45:38;;;;;;;7.95;6.00;;;;;;;7.71;76.54;67633.56;5034437;28;20095;-78
2022/04/21 02:48:04;;;;;;;8.25;5.78;;;;;;;7.65;77.21;67624.13;5052429;28;20069;-78
2022/04/21 02:50:30;;;;;;;8.82;5.82;;;;;;;7.62;77.51;67626.59;5052157;28;20068;-78
2022/04/21 02:52:58;;;;;;;8.40;5.35;;;;;;;7.65;77.40;67624.13;5052353;28;20087;-79
2022/04/21 02:58:07;;;;;;;8.55;5.95;;;;;;;7.67;77.52;67629.03;5046289;28;20071;-78
2022/04/21 03:00:32;;;;;;;9.65;5.68;;;;;;;7.68;77.30;67633.38;5051917;28;20045;-78
2022/04/21 03:02:58;;;;;;;8.20;5.63;;;;;;;7.68;77.16;67627.50;5034810;28;20044;-78
2022/04/21 03:05:23;;;;;;;8.32;5.35;;;;;;;7.63;77.27;67625.06;5051889;28;20768;-78
2022/04/21 03:07:48;;;;;;;10.27;5.43;;;;;;;7.59;77.56;67620.53;5054875;28;20552;-78
2022/04/21 03:10:14;;;;;;;8.60;5.75;;;;;;;7.60;77.68;67624.34;5056256;28;20041;-78
2022/04/21 03:12:40;;;;;;;9.20;5.63;;;;;;;7.55;77.79;67616.03;5043010;28;20128;-78
2022/04/21 03:15:06;;;;;;;10.30;5.53;;;;;;;7.56;77.69;67619.22;5037457;28;20037;-78
2022/04/21 03:17:32;;;;;;;10.88;5.32;;;;;;;7.51;78.08;67614.16;5055304;28;20079;-78
2022/04/21 03:19:57;;;;;;;8.07;5.85;;;;;;;7.49;78.31;67609.22;5055661;28;20468;-78
2022/04/21 03:25:10;;;;;;;8.15;5.70;;;;;;;7.38;78.67;67600.00;5051988;28;20079;-78
2022/04/21 03:27:35;;;;;;;7.95;5.40;;;;;;;7.35;78.98;67593.94;5053711;28;20041;-78
2022/04/21 03:30:06;;;;;;;9.55;5.88;;;;;;;7.32;78.97;67593.19;5058860;28;20043;-78
2022/04/21 03:32:31;;;;;;;12.07;6.13;;;;;;;7.29;79.08;67589.81;5051719;28;20079;-78
2022/04/21 03:34:59;;;;;;;9.40;5.25;;;;;;;7.28;79.48;67588.09;5054317;28;20064;-78
2022/04/21 03:37:24;;;;;;;8.32;5.75;;;;;;;7.29;79.52;67589.25;5055338;28;20041;-78
2022/04/21 03:39:50;;;;;;;9.35;5.75;;;;;;;7.28;79.70;67588.09;5055889;28;20043;-78
2022/04/21 03:42:19;;;;;;;8.88;6.32;;;;;;;7.26;79.79;67585.84;5051112;28;20131;-79
2022/04/21 03:44:45;;;;;;;11.15;6.55;;;;;;;7.23;79.88;67583.00;5055120;28;20040;-78
2022/04/21 03:47:10;;;;;;;10.15;5.85;;;;;;;7.22;80.25;67577.16;5048529;28;20041;-78
2022/04/21 03:49:36;;;;;;;10.15;6.25;;;;;;;7.23;80.19;67580.38;5056416;28;20076;-78
2022/04/21 03:52:01;;;;;;;9.65;6.50;;;;;;;7.19;80.45;67576.41;5025658;28;20132;-78
2022/04/21 03:54:26;;;;;;;12.82;6.55;;;;;;;7.18;80.43;67582.66;5049716;28;20045;-78
2022/04/21 03:56:53;;;;;;;9.23;6.15;;;;;;;7.17;80.50;67574.16;5055306;28;20036;-79
2022/04/21 03:59:20;;;;;;;10.95;6.30;;;;;;;7.17;80.40;67576.78;5053217;28;20049;-78
2022/04/21 04:01:45;;;;;;;9.18;6.28;;;;;;;7.13;80.61;67569.59;5052107;28;20131;-79
2022/04/21 04:04:12;;;;;;;8.65;5.63;;;;;;;7.12;80.67;67565.84;5030513;28;20652;-78
2022/04/21 04:12:07;;;;;;;10.65;6.40;;;;;;;6.99;81.13;67554.34;5054875;28;20063;-78
2022/04/21 04:14:32;;;;;;;10.07;6.30;;;;;;;6.94;81.55;67551.34;5055374;28;20124;-78
2022/04/21 04:16:58;;;;;;;11.23;6.35;;;;;;;6.93;81.53;67550.22;5054977;28;20140;-78
2022/04/21 04:19:23;;;;;;;9.75;7.10;;;;;;;6.92;81.99;67548.50;5053325;28;20158;-78
2022/04/21 04:21:49;;;;;;;12.80;6.32;;;;;;;6.86;82.07;67539.63;5054850;28;20400;-79
2022/04/21 04:24:15;;;;;;;10.38;6.30;;;;;;;6.82;82.01;67537.75;5052999;28;20055;-78
2022/04/21 04:26:41;;;;;;;8.13;5.70;;;;;;;6.81;82.50;67536.63;5039029;28;20530;-78
2022/04/21 04:29:06;;;;;;;8.60;5.90;;;;;;;6.78;82.54;67527.94;5054847;28;20047;-78
2022/04/21 04:31:33;;;;;;;8.90;6.40;;;;;;;6.76;82.81;67530.97;5054853;28;20045;-78
2022/04/21 04:33:58;;;;;;;8.45;5.90;;;;;;;6.72;82.85;67524.34;5052079;28;20041;-78
2022/04/21 04:36:24;;;;;;;10.45;6.55;;;;;;;6.71;83.00;67522.66;5055118;28;20047;-78
2022/04/21 04:38:49;;;;;;;11.00;6.45;;;;;;;6.70;83.36;67518.88;5054519;28;20044;-79
2022/04/21 04:43:59;;;;;;;9.38;5.72;;;;;;;6.72;83.45;67527.00;5049197;28;20095;-78
2022/04/21 04:46:37;;;;;;;7.75;5.70;;;;;;;6.71;83.62;67520.59;5053367;28;20037;-78
2022/04/21 04:49:07;;;;;;;9.87;6.30;;;;;;;6.72;83.67;67527.00;5046961;28;20094;-78
2022/04/21 04:51:34;;;;;;;8.85;6.00;;;;;;;6.73;83.62;67527.56;5053300;28;20041;-78
2022/04/21 04:54:01;;;;;;;7.93;5.63;;;;;;;6.77;83.99;67532.09;5053045;28;20037;-78
2022/04/21 04:56:29;;;;;;;9.15;6.07;;;;;;;6.77;83.79;67526.81;5057293;28;20068;-77
2022/04/21 04:58:56;;;;;;;8.90;6.05;;;;;;;6.77;83.87;67532.66;5036038;28;20036;-78
2022/04/21 05:01:33;;;;;;;11.50;6.45;;;;;;;6.78;84.27;67533.78;5062064;28;20036;-78
2022/04/21 05:04:10;;;;;;;12.60;6.18;;;;;;;6.81;84.03;67536.06;5049794;28;20044;-78
2022/04/21 05:06:36;;;;;;;9.48;5.78;;;;;;;6.80;84.03;67534.94;5048659;28;20053;-78
2022/04/21 05:09:03;;;;;;;12.73;6.13;;;;;;;6.81;84.24;67530.75;5049969;28;20071;-78
2022/04/21 05:11:29;;;;;;;9.55;5.97;;;;;;;6.83;84.44;67538.31;5047749;28;20044;-78
2022/04/21 05:13:54;;;;;;;11.25;5.57;;;;;;;6.87;84.51;67542.84;5048854;28;20115;-78
2022/04/21 05:16:20;;;;;;;8.50;5.68;;;;;;;6.89;84.43;67543.03;5052562;28;20411;-78
2022/04/21 05:18:46;;;;;;;7.97;5.57;;;;;;;6.93;84.40;67544.34;5040391;28;20060;-78
2022/04/21 05:21:11;;;;;;;9.18;5.97;;;;;;;7.00;84.34;67558.13;5054816;28;20075;-78
2022/04/21 05:23:39;;;;;;;10.23;5.78;;;;;;;7.04;84.05;67558.88;5049458;28;20504;-78
2022/04/21 05:26:04;;;;;;;9.80;5.85;;;;;;;7.06;84.00;67567.00;5053101;28;20037;-78
2022/04/21 05:28:30;;;;;;;8.20;5.25;;;;;;;7.11;84.00;67574.75;5050589;28;20041;-78
2022/04/21 05:30:58;;;;;;;10.13;5.80;;;;;;;7.17;84.00;67573.59;5053961;28;20235;-78
2022/04/21 05:33:25;;;;;;;8.85;5.93;;;;;;;7.19;83.92;67584.34;5054693;28;20623;-78
2022/04/21 05:35:51;;;;;;;11.30;6.10;;;;;;;7.24;83.81;67584.69;5053269;28;20041;-78
2022/04/21 05:38:17;;;;;;;9.57;5.47;;;;;;;7.24;83.93;67578.84;5050776;28;20115;-78
2022/04/21 05:40:43;;;;;;;9.07;5.85;;;;;;;7.22;84.35;67582.47;5052947;28;20067;-78
2022/04/21 05:43:12;;;;;;;8.48;5.80;;;;;;;7.26;84.03;67586.41;5054647;28;20090;-79
2022/04/21 05:45:38;;;;;;;7.82;5.82;;;;;;;7.34;84.19;67594.91;5052363;28;20052;-78
2022/04/21 05:48:04;;;;;;;10.95;6.00;;;;;;;7.38;83.81;67600.00;5051906;28;20526;-78
2022/04/21 05:50:29;;;;;;;10.00;5.82;;;;;;;7.43;83.63;67605.66;5054324;28;20044;-78
2022/04/21 05:53:00;;;;;;;8.10;5.70;;;;;;;7.49;83.32;67611.31;5056374;28;20044;-78
2022/04/21 05:55:26;;;;;;;8.57;6.00;;;;;;;7.55;83.22;67618.09;5051149;28;20043;-78
2022/04/21 05:57:51;;;;;;;11.63;6.00;;;;;;;7.60;83.07;67623.78;5052521;28;20462;-79
2022/04/21 06:00:17;;;;;;;9.38;5.60;;;;;;;7.65;83.02;67624.13;5050382;28;20052;-78
2022/04/21 06:02:42;;;;;;;7.53;5.38;;;;;;;7.70;82.81;67629.78;5050876;28;20404;-79
2022/04/21 06:05:08;;;;;;;8.48;5.57;;;;;;;7.77;82.85;67643.00;5055156;28;20039;-79
2022/04/21 06:07:33;;;;;;;7.97;5.40;;;;;;;7.83;82.44;67647.16;5052242;28;20045;-79
2022/04/21 06:09:58;;;;;;;10.05;5.38;;;;;;;7.89;82.54;67656.59;5052504;28;20425;-79
2022/04/21 06:12:25;;;;;;;11.77;5.60;;;;;;;7.98;82.26;67665.66;5059000;28;20383;-79
2022/04/21 06:14:51;;;;;;;8.07;5.47;;;;;;;8.05;81.58;67668.28;5033563;28;20646;-79
2022/04/21 06:17:16;;;;;;;8.65;6.00;;;;;;;8.13;81.75;67682.63;5050526;28;20044;-79
2022/04/21 06:19:42;;;;;;;7.93;5.68;;;;;;;8.19;81.33;67684.13;5048901;28;20406;-80
2022/04/21 06:22:07;;;;;;;8.35;5.60;;;;;;;;;;5048876;28;20040;-79
2022/04/21 06:24:32;;;;;;;7.60;5.30;;;;;;;8.33;80.44;67700.00;5049634;28;20095;-78
2022/04/21 06:26:58;;;;;;;9.48;4.88;;;;;;;8.43;80.49;67710.19;5049822;28;20040;-79
2022/04/21 06:29:23;;;;;;;8.38;5.55;;;;;;;8.50;80.01;67723.44;5055848;28;20036;-78
2022/04/21 06:31:48;;;;;;;7.80;5.55;;;;;;;8.57;79.46;67731.38;5042125;28;20040;-78
2022/04/21 06:34:14;;;;;;;9.57;5.40;;;;;;;8.64;79.05;67741.97;5051879;28;20041;-79
2022/04/21 06:36:39;;;;;;;9.30;5.35;;;;;;;8.73;78.65;67746.28;5038800;28;20442;-79
2022/04/21 06:39:04;;;;;;;7.55;4.68;;;;;;;8.80;78.31;67752.13;5052542;28;20029;-79
2022/04/21 06:41:30;;;;;;;8.18;5.30;;;;;;;8.89;78.10;67769.72;5054624;28;20146;-79
2022/04/21 06:49:22;;;;;;;8.23;4.70;;;;;;;;;;5053153;28;20044;-79
2022/04/21 06:51:48;;;;;;;9.07;4.72;;;;;;;9.13;74.55;67791.06;5052603;28;20037;-79
2022/04/21 06:54:13;;;;;;;7.15;4.82;;;;;;;9.20;74.32;67801.63;5039116;28;20148;-81
2022/04/21 06:56:39;;;;;;;5.93;4.32;;;;;;;9.26;73.82;67807.88;5050137;28;20041;-81
2022/04/21 06:59:05;;;;;;;7.70;4.70;;;;;;;9.33;73.56;67815.81;5047290;28;20033;-79
2022/04/21 07:01:31;;;;;;;9.73;4.90;;;;;;;9.45;74.29;67826.75;5052664;28;20101;-80
2022/04/21 07:03:56;;;;;;;7.13;4.90;;;;;;;9.53;73.30;67832.63;5054816;28;20108;-78
2022/04/21 07:06:22;;;;;;;5.70;4.55;;;;;;;9.62;72.93;67848.13;5036317;28;20060;-78
2022/04/21 07:08:48;;;;;;;7.10;4.32;;;;;;;9.67;71.77;67847.94;5043712;28;20098;-79
2022/04/21 07:11:15;;;;;;;6.50;4.00;;;;;;;9.73;70.88;67862.13;5048039;28;20066;-79
2022/04/21 07:13:41;;;;;;;6.22;4.22;;;;;;;9.76;69.53;67860.22;5057475;28;20036;-80
2022/04/21 07:16:06;;;;;;;5.53;4.15;;;;;;;9.81;68.30;67866.47;5052792;28;20400;-78
2022/04/21 07:18:32;;;;;;;8.40;4.05;;;;;;;9.91;68.82;67874.56;5034602;28;20056;-79
2022/04/21 07:21:00;;;;;;;6.25;4.35;;;;;;;10.01;69.34;67893.31;5052815;28;20045;-80
2022/04/21 07:23:25;;;;;;;6.70;3.83;;;;;;;10.08;69.21;67896.50;5053070;28;20278;-78
2022/04/21 07:25:51;;;;;;;7.28;3.90;;;;;;;10.16;68.46;67905.59;5057278;28;20045;-78
2022/04/21 07:28:16;;;;;;;7.65;3.95;;;;;;;10.22;67.21;67908.59;5058810;28;20045;-79
2022/04/21 07:30:42;;;;;;;5.85;3.70;;;;;;;10.31;67.85;67921.50;5057596;28;20484;-78
2022/04/21 07:33:07;;;;;;;7.72;4.10;;;;;;;10.41;67.31;67935.50;5058286;28;20036;-79
2022/04/21 07:35:34;;;;;;;8.43;4.15;;;;;;;10.51;67.61;67944.19;5054395;28;20056;-79
2022/04/21 07:37:59;;;;;;;6.63;4.30;;;;;;;10.64;68.69;67958.38;5055270;28;20534;-78
2022/04/21 07:40:25;;;;;;;6.90;4.72;;;;;;;10.76;68.13;67971.41;5059916;28;20049;-77
2022/04/21 07:42:50;;;;;;;5.93;4.05;;;;;;;10.91;67.13;67985.78;5055709;28;20037;-78
2022/04/21 07:45:16;;;;;;;6.18;3.80;;;;;;;11.04;66.80;67999.97;5059167;28;20103;-80
2022/04/21 07:47:42;;;;;;;6.57;4.00;;;;;;;11.13;64.55;68012.28;5053018;28;20071;-78
2022/04/21 07:50:07;;;;;;;7.22;3.72;;;;;;;11.22;63.90;68023.09;5040714;28;20455;-77
2022/04/21 07:55:20;;;;;;;8.73;4.05;;;;;;;11.34;62.20;68033.47;5052850;28;20584;-79
2022/04/21 07:57:46;;;;;;;6.45;3.72;;;;;;;11.40;62.46;68042.38;5054884;28;20048;-79
2022/04/21 08:00:14;;;;;;;5.40;3.47;;;;;;;11.46;63.11;68052.44;5053865;28;20220;-79
2022/04/21 08:02:42;;;;;;;5.75;4.00;;;;;;;11.55;62.36;68056.19;5052231;28;20043;-77
2022/04/21 08:05:10;;;;;;;5.70;3.38;;;;;;;11.62;62.00;68064.69;5052928;28;20048;-77
2022/04/21 08:07:36;;;;;;;7.35;3.70;;;;;;;11.68;61.85;68074.19;5054255;28;20262;-77
2022/04/21 08:10:06;;;;;;;6.50;3.90;;;;;;;11.75;61.72;68081.56;5044272;28;20405;-78
2022/04/21 08:12:44;;;;;;;7.10;3.90;;;;;;;11.80;62.58;68089.91;5055592;28;20131;-79
2022/04/21 08:15:12;;;;;;;9.40;4.63;;;;;;;11.83;61.01;68090.66;5053707;28;20055;-77
2022/04/21 08:17:38;;;;;;;6.45;3.65;;;;;;;11.91;61.62;68099.78;5055833;28;20043;-78
2022/04/21 08:20:09;;;;;;;5.57;3.70;;;;;;;12.00;61.37;68106.75;5058235;28;20064;-79
2022/04/21 08:22:35;;;;;;;6.45;3.28;;;;;;;12.06;59.32;68113.56;5054690;28;20104;-78
2022/04/21 08:33:14;;;;;;;5.25;3.65;;;;;;;12.30;58.83;68140.28;5052740;28;20102;-77
2022/04/21 08:35:39;;;;;;;6.50;3.35;;;;;;;12.34;57.91;68144.81;5051452;28;20076;-79
2022/04/21 08:38:04;;;;;;;6.82;3.33;;;;;;;12.45;58.56;68156.19;5054847;28;20049;-79
2022/04/21 08:40:31;;;;;;;4.85;3.30;;;;;;;12.46;56.08;68160.56;5055155;28;20102;-77
2022/04/21 08:43:00;;;;;;;5.50;2.90;;;;;;;12.48;55.46;68160.16;5055746;28;20415;-78
2022/04/21 08:45:26;;;;;;;4.90;3.20;;;;;;;12.55;56.02;68167.56;5055796;28;20036;-79
2022/04/21 08:47:57;;;;;;;5.35;3.00;;;;;;;12.59;54.97;68175.34;5055173;28;20040;-79
2022/04/21 08:50:23;;;;;;;5.00;3.05;;;;;;;12.60;55.73;68175.91;5050804;28;20095;-77
2022/04/21 08:52:49;;;;;;;4.35;2.78;;;;;;;12.67;55.03;68181.19;5055574;28;20084;-78
2022/04/21 08:55:14;;;;;;;6.53;2.95;;;;;;;12.73;55.28;68182.09;5052957;28;20064;-78
2022/04/21 08:57:40;;;;;;;5.55;3.10;;;;;;;12.79;55.44;68194.81;5055983;28;20040;-79
2022/04/21 09:00:06;;;;;;;4.43;2.67;;;;;;;;;;5055698;28;20495;-79
2022/04/21 09:02:40;;;;;;;5.63;3.17;;;;;;;12.88;53.40;68205.06;5054796;28;20431;-77
2022/04/21 09:05:07;;;;;;;4.60;3.17;;;;;;;12.95;53.45;68212.47;5055370;28;20135;-78
2022/04/21 09:07:43;;;;;;;6.78;2.90;;;;;;;13.01;54.45;68221.38;5053698;28;20526;-79
2022/04/21 09:10:13;;;;;;;4.20;2.50;;;;;;;13.07;54.14;68228.22;5053740;28;20040;-78
2022/04/21 09:12:45;;;;;;;5.07;2.42;;;;;;;13.15;53.94;68234.63;5050172;28;20074;-78
2022/04/21 09:15:14;;;;;;;5.85;3.10;;;;;;;13.20;52.34;68242.41;5052349;28;20033;-78
2022/04/21 09:17:49;;;;;;;4.65;2.65;;;;;;;;;;5054266;28;20036;-79
2022/04/21 09:20:20;;;;;;;5.07;2.55;;;;;;;13.40;53.55;68264.63;5056142;28;20156;-78
2022/04/21 09:22:48;;;;;;;5.53;2.67;;;;;;;;;;5044174;28;20405;-79
2022/04/21 09:25:14;;;;;;;4.80;3.10;;;;;;;13.57;51.39;68281.28;5021976;28;20103;-79
2022/04/21 09:27:43;;;;;;;6.38;2.75;;;;;;;;;;5051243;28;20037;-78
2022/04/21 09:30:10;;;;;;;;;;;;;;;13.64;49.17;68294.59;5052390;28;20120;-77
2022/04/21 09:32:37;;;;;;;5.75;2.65;;;;;;;13.59;51.03;68283.56;5051719;28;19943;-78
2022/04/21 09:35:07;;;;;;;4.60;2.83;;;;;;;13.73;50.58;68302.16;5051063;28;20048;-77
2022/04/21 09:37:33;;;;;;;9.23;3.97;;;;;;;13.85;50.52;68317.34;5047530;28;20037;-78
2022/04/21 09:40:00;;;;;;;6.38;3.00;;;;;;;;;;5048499;28;20044;-78
2022/04/21 09:42:28;;;;;;;5.90;3.05;;;;;;;13.89;50.76;68319.78;5047759;28;20078;-80
2022/04/21 09:47:56;;;;;;;4.97;3.13;;;;;;;;;;5043780;28;20459;-78
2022/04/21 09:50:25;;;;;;;5.45;3.30;;;;;;;13.47;50.16;68269.91;5049601;28;20048;-77
2022/04/21 09:52:54;;;;;;;5.18;3.25;;;;;;;13.52;51.42;68275.59;5051052;28;20051;-78
2022/04/21 09:55:20;;;;;;;6.25;3.17;;;;;;;13.45;50.03;68268.19;5049340;28;20039;-80
2022/04/21 09:57:46;;;;;;;5.70;3.40;;;;;;;13.50;50.83;68273.31;5051093;28;20040;-79
2022/04/21 10:00:12;;;;;;;5.45;3.60;;;;;;;13.54;50.54;68278.44;5049173;28;20523;-78
2022/04/21 10:02:38;;;;;;;5.60;3.03;;;;;;;13.53;49.58;68276.75;5050815;28;20044;-79
2022/04/21 10:05:05;;;;;;;4.80;3.10;;;;;;;13.54;50.17;68283.22;5050350;28;20049;-78
2022/04/21 10:07:31;;;;;;;6.40;3.28;;;;;;;;;;5031985;28;20040;-77
2022/04/21 10:09:58;;;;;;;6.93;3.13;;;;;;;13.74;51.27;68305.97;5050717;28;20045;-79
2022/04/21 10:12:24;;;;;;;5.30;2.95;;;;;;;13.84;50.75;68306.09;5050304;28;20120;-79
2022/04/21 10:14:50;;;;;;;3.60;2.40;;;;;;;13.95;50.34;68323.38;5048720;28;20128;-78
2022/04/21 10:17:15;;;;;;;6.18;3.00;;;;;;;14.03;48.33;68332.47;5051039;28;20073;-77
2022/04/21 10:19:40;;;;;;;4.97;2.70;;;;;;;14.10;49.13;68345.25;5050267;28;20064;-78
2022/04/21 10:22:13;;;;;;;6.47;2.80;;;;;;;14.14;48.75;68347.13;5050579;28;20052;-78
2022/04/21 10:24:39;;;;;;;5.55;3.15;;;;;;;14.16;50.20;68346.72;5031455;28;20439;-77
2022/04/21 10:27:06;;;;;;;4.45;3.28;;;;;;;14.10;49.31;68340.47;5050418;28;20041;-78
2022/04/21 10:29:31;;;;;;;8.30;3.83;;;;;;;14.24;49.69;68355.81;5050216;28;20121;-78
2022/04/21 10:31:59;;;;;;;9.45;3.65;;;;;;;;;;5050215;28;20508;-79
2022/04/21 10:34:31;;;;;;;6.32;3.60;;;;;;;14.73;50.00;68409.91;5048469;28;20041;-78
2022/04/21 10:37:12;;;;;;;6.05;3.63;;;;;;;14.68;48.47;68404.22;5050366;28;20036;-79
2022/04/21 10:39:38;;;;;;;4.47;3.10;;;;;;;14.69;48.85;68405.34;5047987;28;20110;-79
2022/04/21 10:42:06;;;;;;;5.85;3.05;;;;;;;;;;5050372;28;20067;-78
2022/04/21 10:44:40;;;;;;;6.20;3.38;;;;;;;14.89;47.45;68431.38;5048178;28;20045;-78
2022/04/21 10:47:27;;;;;;;5.78;3.20;;;;;;;15.01;48.00;68441.22;5036299;28;20080;-77
2022/04/21 10:49:55;;;;;;;8.18;3.42;;;;;;;14.96;47.65;68430.16;5035806;28;20041;-78
2022/04/21 10:57:47;;;;;;;6.03;3.60;;;;;;;15.01;50.12;68443.91;5053625;28;20067;-77
2022/04/21 11:00:27;;;;;;;9.55;3.80;;;;;;;15.14;49.65;68450.13;5053733;28;20103;-77
2022/04/21 11:03:03;;;;;;;8.77;3.92;;;;;;;15.14;47.24;68456.03;5035873;28;20041;-78
2022/04/21 11:05:31;;;;;;;6.28;3.15;;;;;;;15.14;46.79;68456.03;5052784;28;20396;-78
2022/04/21 11:07:58;;;;;;;7.15;3.17;;;;;;;15.26;48.07;68464.34;5050406;28;20083;-76
2022/04/21 11:10:27;;;;;;;8.23;3.17;;;;;;;15.39;48.64;68483.38;5053437;28;20073;-79
2022/04/21 11:12:53;;;;;;;10.00;3.30;;;;;;;15.50;47.21;68496.47;5055535;28;20044;-79
2022/04/21 11:15:45;;;;;;;5.68;2.88;;;;;;;15.70;47.86;68518.16;5043944;28;20094;-78
2022/04/21 11:18:31;;;;;;;6.13;2.97;;;;;;;15.91;48.43;68536.13;5037061;28;20037;-77
2022/04/21 11:21:26;;;;;;;7.10;3.13;;;;;;;15.91;47.33;68542.09;5054605;28;20535;-79
2022/04/21 11:23:51;;;;;;;5.43;3.00;;;;;;;;;;5015715;28;20045;-79
2022/04/21 11:26:17;;;;;;;7.03;2.73;;;;;;;15.97;44.69;68542.97;5043656;28;20131;-77
2022/04/21 11:28:45;;;;;;;5.15;2.92;;;;;;;15.94;44.96;68544.91;5055845;28;20041;-77
2022/04/21 11:31:11;;;;;;;4.78;2.70;;;;;;;16.07;45.34;68559.19;5056788;28;20068;-79
2022/04/21 11:33:38;;;;;;;6.80;2.92;;;;;;;16.28;44.30;68583.09;5044498;28;20109;-79
2022/04/21 11:36:06;;;;;;;5.60;2.40;;;;;;;16.32;44.10;68587.09;5051932;28;20106;-78
2022/04/21 11:38:33;;;;;;;5.05;2.50;;;;;;;16.50;43.38;68609.75;5054778;28;20562;-78
2022/04/21 11:41:02;;;;;;;6.63;2.55;;;;;;;;;;5056815;28;20090;-78
2022/04/21 11:43:28;;;;;;;8.30;3.10;;;;;;;16.59;43.60;68617.31;5060695;28;20056;-78
2022/04/21 11:46:01;;;;;;;6.13;2.80;;;;;;;16.56;43.40;68608.53;5056647;28;20111;-78
2022/04/21 11:48:37;;;;;;;5.65;3.00;;;;;;;16.45;44.52;68597.09;5058360;28;20061;-78
2022/04/21 11:51:03;;;;;;;8.43;3.30;;;;;;;16.47;44.86;68604.78;5046015;28;20044;-76
2022/04/21 11:53:29;;;;;;;3.97;2.75;;;;;;;;;;5057800;28;20103;-78
2022/04/21 11:55:54;;;;;;;4.75;3.05;;;;;;;;;;5055900;28;20037;-79
2022/04/21 11:58:27;;;;;;;5.53;2.87;;;;;;;16.22;45.89;68570.91;5053017;28;20045;-79
2022/04/21 12:06:30;;;;;;;4.60;3.25;;;;;;;16.30;46.79;68580.00;5051850;28;20040;-78
2022/04/21 12:08:56;;;;;;;7.15;3.65;;;;;;;16.43;49.29;68599.66;5056971;28;20178;-78
2022/04/21 12:11:22;;;;;;;8.32;3.10;;;;;;;;;;5059862;28;20095;-79
2022/04/21 12:13:49;;;;;;;10.25;3.40;;;;;;;17.00;48.64;68662.94;5056990;28;20056;-79
2022/04/21 12:16:54;;;;;;;6.78;3.28;;;;;;;17.18;46.97;68683.50;5056715;28;20127;-78
2022/04/21 12:19:33;;;;;;;6.53;3.10;;;;;;;17.35;47.81;68702.88;5044240;28;20043;-77
2022/04/21 12:22:00;;;;;;;6.95;3.55;;;;;;;17.45;48.48;68713.16;5071436;22;20037;-82
2022/04/21 12:24:45;;;;;;;7.85;3.08;;;;;;;17.62;49.05;68735.25;5033422;28;20403;-82
2022/04/21 12:27:12;;;;;;;10.25;3.72;;;;;;;17.71;46.68;68742.81;5054403;28;20499;-83
2022/04/21 12:29:48;;;;;;;5.70;3.38;;;;;;;;;;5056962;28;20139;-82
2022/04/21 12:32:16;;;;;;;10.20;4.07;;;;;;;17.82;45.32;68754.84;5046134;28;20046;-83
2022/04/21 12:34:42;;;;;;;5.07;3.30;;;;;;;17.88;46.29;68755.72;5030643;28;20451;-83
2022/04/21 12:37:09;;;;;;;6.50;3.60;;;;;;;17.92;47.13;68760.28;5027889;28;20049;-83